Time;durP1;ratioP1;P1;durP2;ratioP2;P2;SDS_P1;SDS_P2;PMS_P1;PMS_P2;Temp;Humidity;BMP_temperature;BMP_pressure;BME280_temperature;BME280_humidity;BME280_pressure;Samples;Min_cycle;Max_cycle;Signal;HPM_P1;HPM_P2
2022/01/21 00:00:00;;;;;;;15.67;8.27;;;;;;;-0.30;100.00;102413.28;837637;23;900;-51
2022/01/21 00:00:20;;;;;;;15.32;8.73;;;;;;;-0.30;100.00;102418.41;837311;23;943;-54
2022/01/21 00:00:41;;;;;;;17.30;8.77;;;;;;;-0.28;100.00;102419.38;836628;23;880;-52
2022/01/21 00:01:01;;;;;;;16.20;8.73;;;;;;;-0.26;100.00;102420.41;833752;23;4399;-54
2022/01/21 00:01:24;;;;;;;15.77;8.37;;;;;;;-0.26;100.00;102415.25;838658;23;718;-54
2022/01/21 00:01:44;;;;;;;17.65;8.30;;;;;;;-0.27;100.00;102418.59;838255;23;808;-56
2022/01/21 00:02:05;;;;;;;16.38;7.97;;;;;;;-0.24;100.00;102426.50;835566;23;809;-56
2022/01/21 00:02:26;;;;;;;16.83;7.93;;;;;;;-0.24;100.00;102421.38;836263;23;951;-52
2022/01/21 00:02:47;;;;;;;14.50;7.57;;;;;;;-0.23;100.00;102423.16;837795;23;915;-52
2022/01/21 00:03:07;;;;;;;13.37;7.40;;;;;;;-0.23;100.00;102424.03;836789;23;801;-52
2022/01/21 00:03:28;;;;;;;15.07;7.53;;;;;;;-0.23;100.00;102423.16;834343;23;829;-51
2022/01/21 00:03:49;;;;;;;14.63;7.23;;;;;;;-0.27;100.00;102418.59;836842;23;4383;-53
2022/01/21 00:04:10;;;;;;;15.50;7.47;;;;;;;-0.29;100.00;102423.66;837646;23;1008;-53
2022/01/21 00:04:31;;;;;;;15.40;7.85;;;;;;;-0.28;100.00;102427.97;833734;23;939;-53
2022/01/21 00:04:51;;;;;;;16.17;7.90;;;;;;;-0.27;100.00;102423.75;835897;23;887;-52
2022/01/21 00:05:12;;;;;;;16.80;7.77;;;;;;;-0.30;100.00;102419.28;836869;23;1269;-53
2022/01/21 00:05:32;;;;;;;14.07;7.35;;;;;;;-0.28;100.00;102425.41;835599;23;911;-53
2022/01/21 00:05:53;;;;;;;13.70;7.77;;;;;;;-0.30;100.00;102418.41;836379;23;923;-51
2022/01/21 00:06:14;;;;;;;16.67;7.57;;;;;;;-0.30;100.00;102421.84;836494;23;892;-53
2022/01/21 00:06:34;;;;;;;16.02;7.32;;;;;;;-0.30;100.00;102426.13;836133;23;808;-54
2022/01/21 00:06:55;;;;;;;14.32;7.28;;;;;;;-0.32;100.00;102425.09;835087;23;4573;-54
2022/01/21 00:07:15;;;;;;;14.60;7.37;;;;;;;-0.33;100.00;102424.22;832913;23;975;-54
2022/01/21 00:07:35;;;;;;;14.30;7.00;;;;;;;-0.31;100.00;102426.91;832199;23;761;-53
2022/01/21 00:07:56;;;;;;;13.68;6.47;;;;;;;-0.29;100.00;102422.72;831060;23;799;-51
2022/01/21 00:08:16;;;;;;;14.53;6.13;;;;;;;-0.27;100.00;102428.88;832852;23;777;-52
2022/01/21 00:08:39;;;;;;;14.10;5.88;;;;;;;-0.28;100.00;102421.97;831494;23;872;-53
2022/01/21 00:08:59;;;;;;;12.95;5.80;;;;;;;-0.23;100.00;102426.63;834511;23;931;-53
2022/01/21 00:09:20;;;;;;;16.60;6.47;;;;;;;-0.23;100.00;102433.44;837336;23;794;-51
2022/01/21 00:09:40;;;;;;;13.88;6.25;;;;;;;-0.22;100.00;102427.53;831495;23;920;-54
2022/01/21 00:10:01;;;;;;;12.20;5.57;;;;;;;-0.22;100.00;102422.38;830539;23;4223;-54
2022/01/21 00:10:21;;;;;;;13.65;5.28;;;;;;;-0.22;100.00;102427.53;830637;23;901;-52
2022/01/21 00:10:42;;;;;;;17.03;5.53;;;;;;;-0.18;100.00;102429.50;832018;23;772;-53
2022/01/21 00:11:03;;;;;;;17.73;5.70;;;;;;;-0.16;100.00;102425.34;833256;23;855;-52
2022/01/21 00:11:25;;;;;;;15.77;5.25;;;;;;;-0.15;100.00;102421.09;832613;23;955;-54
2022/01/21 00:11:45;;;;;;;14.48;4.90;;;;;;;-0.10;100.00;102423.19;837913;23;915;-52
2022/01/21 00:12:06;;;;;;;16.05;4.82;;;;;;;-0.11;100.00;102426.56;837349;23;946;-52
2022/01/21 00:12:29;;;;;;;15.98;4.82;;;;;;;-0.10;100.00;102423.19;833323;23;943;-53
2022/01/21 00:12:53;;;;;;;15.90;4.82;;;;;;;-0.07;100.00;102423.41;831771;23;4503;-55
2022/01/21 00:13:24;;;;;;;14.43;5.50;;;;;;;-0.06;100.00;102430.31;829281;23;801;-51
2022/01/21 00:13:45;;;;;;;12.45;4.65;;;;;;;-0.11;100.00;102426.56;829366;23;935;-54
2022/01/21 00:14:06;;;;;;;13.45;4.60;;;;;;;-0.13;100.00;102422.97;829272;23;793;-55
2022/01/21 00:14:27;;;;;;;14.27;5.00;;;;;;;-0.16;100.00;102422.78;830355;23;1014;-54
2022/01/21 00:14:47;;;;;;;13.73;5.00;;;;;;;-0.16;100.00;102430.50;833198;23;840;-53
2022/01/21 00:15:10;;;;;;;11.45;4.70;;;;;;;-0.18;100.00;102426.91;836476;23;887;-54
2022/01/21 00:15:30;;;;;;;10.18;4.50;;;;;;;-0.20;100.00;102426.81;831807;23;902;-52
2022/01/21 00:15:51;;;;;;;12.00;4.60;;;;;;;-0.16;100.00;102427.94;830494;23;4381;-54
2022/01/21 00:16:23;;;;;;;13.73;4.83;;;;;;;-0.20;100.00;102425.94;833229;23;765;-52
2022/01/21 00:16:43;;;;;;;11.85;4.50;;;;;;;-0.21;100.00;102430.19;829792;23;1811;-51
2022/01/21 00:17:04;;;;;;;11.77;4.47;;;;;;;-0.18;100.00;102424.34;827927;23;765;-51
2022/01/21 00:17:24;;;;;;;13.90;4.80;;;;;;;-0.17;100.00;102426.13;830566;23;999;-53
2022/01/21 00:17:45;;;;;;;11.57;4.85;;;;;;;-0.16;100.00;102430.50;832143;23;770;-53
2022/01/21 00:18:08;;;;;;;12.20;4.70;;;;;;;-0.18;100.00;102429.50;833425;23;892;-52
2022/01/21 00:18:28;;;;;;;12.63;4.63;;;;;;;-0.06;100.00;102430.31;833277;23;776;-54
2022/01/21 00:18:58;;;;;;;11.63;4.43;;;;;;;-0.08;100.00;102431.91;836391;23;4247;-54
2022/01/21 00:19:20;;;;;;;10.38;4.25;;;;;;;-0.11;100.00;102428.22;836274;23;919;-55
2022/01/21 00:19:44;;;;;;;11.38;4.53;;;;;;;-0.10;100.00;102427.44;836199;23;1956;-51
2022/01/21 00:30:27;;;;;;;13.27;3.97;;;;;;;-0.27;100.00;102440.03;831774;23;825;-55
2022/01/21 00:30:47;;;;;;;11.05;4.30;;;;;;;-0.26;100.00;102440.97;832542;23;4461;-56
2022/01/21 00:31:07;;;;;;;12.53;4.70;;;;;;;-0.27;100.00;102437.47;832939;23;1090;-52
2022/01/21 00:31:28;;;;;;;12.15;4.18;;;;;;;-0.28;100.00;102440.81;833080;23;755;-54
2022/01/21 00:31:48;;;;;;;10.50;4.10;;;;;;;-0.20;100.00;102443.94;827671;23;1146;-54
2022/01/21 00:32:09;;;;;;;9.90;3.90;;;;;;;-0.21;100.00;102439.56;831666;23;809;-53
2022/01/21 00:32:30;;;;;;;11.53;4.00;;;;;;;-0.22;100.00;102437.81;835232;23;911;-51
2022/01/21 00:32:51;;;;;;;11.23;4.18;;;;;;;-0.22;100.00;102442.94;835126;23;936;-52
2022/01/21 00:33:11;;;;;;;12.07;4.30;;;;;;;-0.23;100.00;102442.03;835974;23;848;-53
2022/01/21 00:33:31;;;;;;;13.43;4.37;;;;;;;-0.23;100.00;102436.03;837325;23;899;-52
2022/01/21 00:33:52;;;;;;;12.17;4.17;;;;;;;-0.25;100.00;102437.56;835287;23;4428;-54
2022/01/21 00:34:12;;;;;;;12.73;4.23;;;;;;;-0.27;100.00;102439.16;833394;23;900;-54
2022/01/21 00:34:33;;;;;;;11.20;4.03;;;;;;;-0.23;100.00;102439.47;834190;23;800;-51
2022/01/21 00:34:56;;;;;;;10.15;3.92;;;;;;;-0.18;100.00;102438.09;832114;23;824;-53
2022/01/21 00:35:19;;;;;;;9.30;4.03;;;;;;;-0.19;100.00;102438.88;833644;23;975;-53
2022/01/21 00:35:39;;;;;;;11.88;4.05;;;;;;;-0.19;100.00;102444.03;829891;23;1018;-52
2022/01/21 00:35:59;;;;;;;11.70;4.00;;;;;;;-0.20;100.00;102431.97;827816;23;1163;-55
2022/01/21 00:36:20;;;;;;;10.93;3.50;;;;;;;-0.20;100.00;102436.22;829584;23;833;-53
2022/01/21 00:36:40;;;;;;;12.17;3.80;;;;;;;-0.21;100.00;102442.13;828998;23;1673;-53
2022/01/21 00:37:01;;;;;;;10.23;3.88;;;;;;;-0.20;100.00;102439.66;831414;23;4287;-55
2022/01/21 00:37:22;;;;;;;13.43;3.70;;;;;;;-0.20;100.00;102436.22;832890;23;927;-51
2022/01/21 00:37:45;;;;;;;13.73;3.83;;;;;;;-0.21;100.00;102437.91;837954;23;911;-54
2022/01/21 00:38:06;;;;;;;14.48;4.18;;;;;;;-0.19;100.00;102433.75;832010;23;845;-55
2022/01/21 00:38:29;;;;;;;13.03;4.20;;;;;;;-0.14;100.00;102435.75;833152;23;951;-55
2022/01/21 00:38:49;;;;;;;11.98;3.90;;;;;;;-0.15;100.00;102429.72;836419;23;2064;-54
2022/01/21 00:39:11;;;;;;;12.13;3.80;;;;;;;-0.15;100.00;102431.38;837422;23;985;-55
2022/01/21 00:39:33;;;;;;;11.13;3.90;;;;;;;-0.18;100.00;102435.53;835808;23;2042;-53
2022/01/21 00:39:57;;;;;;;10.65;3.95;;;;;;;-0.18;100.00;102426.91;836053;23;4343;-51
2022/01/21 00:40:22;;;;;;;10.55;3.70;;;;;;;-0.19;100.00;102435.44;841361;23;812;-52
2022/01/21 00:40:42;;;;;;;10.25;3.78;;;;;;;-0.19;100.00;102433.75;834808;23;1371;-53
2022/01/21 00:41:06;;;;;;;10.73;3.80;;;;;;;-0.21;100.00;102430.19;830816;23;1501;-54
2022/01/21 00:41:32;;;;;;;11.55;3.85;;;;;;;-0.23;100.00;102430.88;831674;23;1307;-54
2022/01/21 00:43:12;;;;;;;14.82;4.78;;;;;;;-0.21;100.00;102429.28;835124;23;5788;-56
2022/01/21 00:43:43;;;;;;;12.55;3.95;;;;;;;-0.21;100.00;102440.47;836073;23;907;-54
2022/01/21 00:44:04;;;;;;;10.80;3.55;;;;;;;-0.21;100.00;102439.56;831763;23;940;-54
2022/01/21 00:44:24;;;;;;;12.52;3.70;;;;;;;-0.22;100.00;102435.25;833024;23;757;-55
2022/01/21 00:44:45;;;;;;;13.00;4.00;;;;;;;-0.22;100.00;102441.25;828352;23;1544;-56
2022/01/21 00:45:11;;;;;;;11.37;3.77;;;;;;;-0.22;100.00;102438.69;831310;23;1426;-55
2022/01/21 00:45:32;;;;;;;12.98;4.07;;;;;;;-0.23;100.00;102442.03;827406;23;1302;-52
2022/01/21 00:45:53;;;;;;;11.48;3.85;;;;;;;-0.23;100.00;102436.91;830814;23;4200;-54
2022/01/21 00:46:13;;;;;;;9.73;3.77;;;;;;;-0.21;100.00;102437.91;831705;23;1121;-53
2022/01/21 00:46:34;;;;;;;9.98;3.80;;;;;;;-0.20;100.00;102441.34;833965;23;852;-54
2022/01/21 00:46:54;;;;;;;11.23;3.60;;;;;;;-0.20;100.00;102437.09;835171;23;857;-54
2022/01/21 00:47:15;;;;;;;10.77;3.67;;;;;;;-0.19;100.00;102440.59;834225;23;1090;-52
2022/01/21 00:47:36;;;;;;;9.25;3.42;;;;;;;-0.19;100.00;102440.59;835582;23;1368;-52
2022/01/21 00:47:57;;;;;;;12.20;3.83;;;;;;;-0.20;100.00;102447.38;837392;23;871;-54
2022/01/21 00:48:17;;;;;;;15.70;4.30;;;;;;;-0.22;100.00;102448.97;836584;23;776;-53
2022/01/21 00:48:38;;;;;;;15.20;4.03;;;;;;;-0.23;100.00;102438.59;835739;23;962;-54
2022/01/21 00:49:02;;;;;;;11.25;3.83;;;;;;;-0.22;100.00;102442.94;831074;23;4297;-53
2022/01/21 00:49:22;;;;;;;11.55;3.63;;;;;;;-0.24;100.00;102445.38;827530;23;1229;-51
2022/01/21 00:49:43;;;;;;;13.68;3.80;;;;;;;-0.23;100.00;102442.03;829033;23;926;-54
2022/01/21 00:50:05;;;;;;;13.87;3.97;;;;;;;-0.23;100.00;102446.31;829301;23;840;-53
2022/01/21 00:50:25;;;;;;;10.15;3.80;;;;;;;-0.22;100.00;102442.94;826963;23;1280;-54
2022/01/21 00:50:47;;;;;;;10.98;3.90;;;;;;;-0.23;100.00;102436.03;830525;23;817;-52
2022/01/21 00:51:08;;;;;;;12.35;3.53;;;;;;;-0.22;100.00;102438.69;832285;23;1347;-52
2022/01/21 00:51:35;;;;;;;12.38;3.85;;;;;;;-0.20;100.00;102441.34;833835;23;899;-52
2022/01/21 00:51:56;;;;;;;11.67;3.50;;;;;;;-0.22;100.00;102448.97;831483;23;4294;-52
2022/01/21 00:52:17;;;;;;;11.77;3.47;;;;;;;-0.24;100.00;102447.97;829664;23;1136;-51
2022/01/21 00:52:37;;;;;;;11.45;3.70;;;;;;;-0.24;100.00;102441.94;831021;23;752;-51
2022/01/21 00:52:58;;;;;;;11.20;3.90;;;;;;;-0.27;100.00;102444.31;830056;23;776;-53
2022/01/21 00:53:19;;;;;;;12.27;3.85;;;;;;;-0.28;100.00;102447.66;833722;23;908;-53
2022/01/21 00:53:40;;;;;;;11.78;3.70;;;;;;;-0.28;100.00;102445.09;827920;23;2025;-53
2022/01/21 00:54:02;;;;;;;10.80;3.80;;;;;;;-0.30;100.00;102454.38;828114;23;1550;-52
2022/01/21 00:54:23;;;;;;;10.73;3.78;;;;;;;-0.36;100.00;102450.59;832596;23;935;-54
2022/01/21 00:54:43;;;;;;;11.47;3.60;;;;;;;-0.36;100.00;102450.59;834274;23;4280;-59
2022/01/21 00:55:06;;;;;;;14.20;3.83;;;;;;;-0.38;100.00;102456.41;830378;23;880;-51
2022/01/21 00:55:26;;;;;;;13.25;3.80;;;;;;;-0.38;100.00;102467.59;833611;23;1463;-53
2022/01/21 00:55:47;;;;;;;14.43;4.07;;;;;;;-0.40;100.00;102463.13;835108;23;1219;-56
2022/01/21 00:56:07;;;;;;;12.20;3.88;;;;;;;-0.38;100.00;102470.16;836022;23;824;-51
2022/01/21 00:56:29;;;;;;;13.23;3.85;;;;;;;-0.39;100.00;102470.03;833633;23;925;-52
2022/01/21 00:56:50;;;;;;;12.27;3.75;;;;;;;-0.40;100.00;102469.16;832720;23;1233;-51
2022/01/21 00:57:11;;;;;;;12.57;4.00;;;;;;;-0.41;100.00;102467.38;835200;23;1421;-52
2022/01/21 00:57:33;;;;;;;13.18;3.95;;;;;;;-0.41;100.00;102467.38;834794;23;981;-55
2022/01/21 00:57:53;;;;;;;11.57;3.70;;;;;;;-0.41;100.00;102467.38;830381;23;4469;-55
2022/01/21 00:58:15;;;;;;;12.27;3.88;;;;;;;-0.40;100.00;102466.59;827314;23;1665;-54
2022/01/21 00:58:35;;;;;;;12.00;3.67;;;;;;;-0.40;100.00;102468.25;829009;23;873;-53
2022/01/21 00:58:55;;;;;;;10.60;3.70;;;;;;;-0.43;100.00;102468.97;829783;23;828;-53
2022/01/21 00:59:16;;;;;;;13.13;3.70;;;;;;;-0.44;100.00;102467.16;829615;23;865;-52
2022/01/21 00:59:36;;;;;;;15.10;3.87;;;;;;;-0.42;100.00;102468.16;828128;23;825;-51
2022/01/21 00:59:57;;;;;;;12.75;3.80;;;;;;;-0.40;100.00;102469.16;831722;23;1900;-56
2022/01/21 01:00:17;;;;;;;11.40;3.80;;;;;;;-0.40;100.00;102469.16;836813;23;867;-52
2022/01/21 01:00:38;;;;;;;10.98;3.80;;;;;;;-0.39;100.00;102468.38;836994;23;761;-52
2022/01/21 01:00:58;;;;;;;12.35;4.10;;;;;;;-0.39;100.00;102470.97;835603;23;4250;-51
2022/01/21 01:01:19;;;;;;;13.77;4.00;;;;;;;-0.38;100.00;102464.13;836360;23;805;-53
2022/01/21 01:01:40;;;;;;;13.32;3.88;;;;;;;-0.38;100.00;102464.13;834928;23;927;-52
2022/01/21 01:02:01;;;;;;;12.75;4.03;;;;;;;-0.39;100.00;102460.69;833087;23;781;-53
2022/01/21 01:02:21;;;;;;;11.32;3.90;;;;;;;-0.38;100.00;102465.00;832362;23;887;-52
2022/01/21 01:02:43;;;;;;;11.18;3.83;;;;;;;-0.37;100.00;102459.09;826732;23;1292;-53
2022/01/21 01:03:04;;;;;;;12.07;3.77;;;;;;;-0.36;100.00;102462.53;823963;23;864;-52
2022/01/21 01:03:25;;;;;;;11.85;3.65;;;;;;;-0.36;100.00;102455.75;827397;23;1326;-52
2022/01/21 01:03:45;;;;;;;12.73;3.70;;;;;;;-0.35;100.00;102454.97;828802;23;4308;-52
2022/01/21 01:04:06;;;;;;;12.70;4.00;;;;;;;-0.34;100.00;102455.84;830948;23;1168;-52
2022/01/21 01:04:27;;;;;;;14.27;4.10;;;;;;;-0.34;100.00;102455.84;832958;23;860;-52
2022/01/21 01:04:48;;;;;;;11.00;3.92;;;;;;;-0.34;100.00;102458.41;837018;23;900;-52
2022/01/21 01:05:10;;;;;;;12.27;4.03;;;;;;;-0.35;100.00;102454.97;840900;23;908;-52
2022/01/21 01:05:30;;;;;;;13.27;4.15;;;;;;;-0.34;100.00;102460.97;832648;23;770;-54
2022/01/21 01:05:51;;;;;;;11.70;3.57;;;;;;;-0.33;100.00;102459.28;833158;23;840;-53
2022/01/21 01:06:12;;;;;;;10.13;3.70;;;;;;;-0.32;100.00;102461.09;833447;23;785;-52
2022/01/21 01:06:33;;;;;;;11.05;3.80;;;;;;;-0.33;100.00;102455.06;830406;23;980;-53
2022/01/21 01:06:53;;;;;;;13.53;3.70;;;;;;;-0.34;100.00;102450.69;830904;23;4324;-51
2022/01/21 01:07:14;;;;;;;11.75;3.50;;;;;;;-0.33;100.00;102457.63;833101;23;855;-53
2022/01/21 01:07:34;;;;;;;9.33;3.27;;;;;;;-0.33;100.00;102452.50;836316;23;718;-55
2022/01/21 01:07:58;;;;;;;11.40;3.60;;;;;;;-0.32;100.00;102455.94;831817;23;1438;-52
2022/01/21 01:08:19;;;;;;;10.95;3.70;;;;;;;-0.33;100.00;102452.50;834485;23;829;-54
2022/01/21 01:08:40;;;;;;;13.02;4.10;;;;;;;-0.35;100.00;102454.97;831897;23;1255;-51
2022/01/21 01:09:00;;;;;;;12.68;4.03;;;;;;;-0.35;100.00;102451.47;830469;23;836;-55
2022/01/21 01:09:21;;;;;;;11.77;4.20;;;;;;;-0.35;100.00;102452.41;831594;23;1525;-54
2022/01/21 01:09:43;;;;;;;13.70;4.20;;;;;;;-0.35;100.00;102454.06;832190;23;1209;-52
2022/01/21 01:10:06;;;;;;;13.20;4.10;;;;;;;-0.35;100.00;102447.25;830816;23;5879;-53
2022/01/21 01:10:38;;;;;;;12.78;3.90;;;;;;;-0.32;100.00;102453.38;832122;23;851;-55
2022/01/21 01:11:15;;;;;;;15.05;4.38;;;;;;;-0.32;100.00;102455.94;828715;23;871;-54
2022/01/21 01:12:39;;;;;;;10.40;3.70;;;;;;;-0.30;100.00;102445.00;831084;23;911;-53
2022/01/21 01:19:52;;;;;;;16.05;3.92;;;;;;;-0.32;100.00;102445.66;831402;23;4326;-55
2022/01/21 01:19:56;;;;;;;13.32;3.78;;;;;;;-0.42;100.00;102445.03;832989;23;839;-55
2022/01/21 01:20:06;;;;;;;10.98;4.10;;;;;;;-0.45;100.00;102454.22;836538;23;1905;-55
2022/01/21 01:20:27;;;;;;;12.15;3.95;;;;;;;-0.41;100.00;102457.09;837944;23;816;-53
2022/01/21 01:20:48;;;;;;;11.30;3.97;;;;;;;-0.41;100.00;102458.78;838813;23;971;-53
2022/01/21 01:21:10;;;;;;;13.57;3.90;;;;;;;-0.43;100.00;102453.53;833654;23;2205;-52
2022/01/21 01:21:31;;;;;;;13.40;3.90;;;;;;;-0.43;100.00;102452.63;832736;23;808;-54
2022/01/21 01:21:55;;;;;;;12.57;3.80;;;;;;;-0.44;100.00;102456.91;834314;23;4299;-53
2022/01/21 01:22:17;;;;;;;11.50;3.95;;;;;;;-0.40;100.00;102453.75;831368;23;1380;-52
2022/01/21 01:23:24;;;;;;;10.70;3.92;;;;;;;-0.43;100.00;102450.97;835357;23;812;-51
2022/01/21 01:27:42;;;;;;;10.60;3.97;;;;;;;-0.33;100.00;102455.06;832751;23;1073;-53
2022/01/21 01:28:03;;;;;;;12.10;4.00;;;;;;;-0.36;100.00;102458.31;831253;23;4634;-53
2022/01/21 01:28:23;;;;;;;10.27;3.65;;;;;;;-0.37;100.00;102458.22;831538;23;801;-51
2022/01/21 01:28:44;;;;;;;12.10;3.97;;;;;;;-0.37;100.00;102455.66;833426;23;897;-51
2022/01/21 01:29:04;;;;;;;11.03;3.83;;;;;;;-0.36;100.00;102459.97;838248;23;773;-51
2022/01/21 01:29:25;;;;;;;11.05;3.70;;;;;;;-0.38;100.00;102456.41;836883;23;916;-52
2022/01/21 01:29:45;;;;;;;12.77;3.80;;;;;;;-0.39;100.00;102458.09;836848;23;782;-51
2022/01/21 01:30:09;;;;;;;10.97;4.00;;;;;;;-0.37;100.00;102453.06;835075;23;860;-51
2022/01/21 01:30:32;;;;;;;13.10;4.05;;;;;;;-0.32;100.00;102453.38;834899;23;768;-52
2022/01/21 01:30:52;;;;;;;11.05;3.70;;;;;;;-0.29;100.00;102443.28;835516;23;4204;-55
2022/01/21 01:31:13;;;;;;;10.97;3.90;;;;;;;-0.23;100.00;102449.75;835720;23;1197;-53
2022/01/21 01:31:33;;;;;;;10.55;3.90;;;;;;;-0.23;100.00;102442.03;836079;23;792;-54
2022/01/21 01:31:53;;;;;;;11.33;3.77;;;;;;;-0.26;100.00;102448.66;836048;23;1113;-51
2022/01/21 01:32:14;;;;;;;11.20;3.63;;;;;;;-0.28;100.00;102443.41;837337;23;776;-53
2022/01/21 01:32:35;;;;;;;12.73;3.83;;;;;;;-0.27;100.00;102441.75;834944;23;1200;-53
2022/01/21 01:32:58;;;;;;;8.82;3.60;;;;;;;-0.29;100.00;102448.44;835676;23;800;-51
2022/01/21 01:33:23;;;;;;;11.10;3.80;;;;;;;-0.31;100.00;102440.63;837156;23;936;-52
2022/01/21 01:33:44;;;;;;;11.18;3.80;;;;;;;-0.31;100.00;102450.03;835033;23;4316;-55
2022/01/21 01:34:04;;;;;;;9.93;3.77;;;;;;;-0.27;100.00;102445.19;837111;23;746;-51
2022/01/21 01:34:25;;;;;;;10.67;4.10;;;;;;;-0.21;100.00;102440.47;837128;23;784;-53
2022/01/21 01:34:45;;;;;;;11.07;4.00;;;;;;;-0.20;100.00;102451.66;836007;23;985;-51
2022/01/21 01:35:08;;;;;;;11.27;3.70;;;;;;;-0.22;100.00;102442.94;837715;23;908;-51
2022/01/21 01:35:33;;;;;;;9.27;3.67;;;;;;;-0.27;100.00;102440.03;834454;23;836;-53
2022/01/21 01:35:53;;;;;;;10.88;3.75;;;;;;;-0.29;100.00;102440.72;835303;23;1226;-55
2022/01/21 01:36:13;;;;;;;11.10;3.87;;;;;;;-0.33;100.00;102436.16;837474;23;789;-52
2022/01/21 01:36:34;;;;;;;10.50;4.10;;;;;;;-0.37;100.00;102437.66;836499;23;876;-52
2022/01/21 01:36:58;;;;;;;10.33;3.90;;;;;;;-0.42;100.00;102439.88;834431;23;4432;-56
2022/01/21 01:38:47;;;;;;;12.82;4.18;;;;;;;-0.59;100.00;102433.59;830563;23;1248;-55
2022/01/21 01:39:42;;;;;;;10.57;3.90;;;;;;;-0.64;100.00;102434.06;833584;23;857;-54
2022/01/21 01:40:20;;;;;;;13.23;4.38;;;;;;;-0.69;100.00;102441.47;838706;23;6124;-52
2022/01/21 01:40:52;;;;;;;11.25;4.20;;;;;;;-0.73;100.00;102442.91;840347;23;865;-51
2022/01/21 01:41:15;;;;;;;14.50;4.28;;;;;;;-0.73;100.00;102440.34;839640;23;884;-53
2022/01/21 01:41:40;;;;;;;12.52;4.50;;;;;;;-0.76;100.00;102446.94;838140;23;1472;-51
2022/01/21 01:43:06;;;;;;;12.77;4.68;;;;;;;-0.82;100.00;102449.97;835679;23;4485;-55
2022/01/21 01:49:49;;;;;;;12.20;4.25;;;;;;;-0.77;100.00;102456.31;831717;23;833;-53
2022/01/21 01:50:09;;;;;;;11.13;4.40;;;;;;;-0.74;100.00;102459.09;835658;23;1035;-52
2022/01/21 01:50:30;;;;;;;11.52;4.07;;;;;;;-0.75;100.00;102457.34;837238;23;894;-55
2022/01/21 01:50:51;;;;;;;11.73;4.20;;;;;;;-0.73;100.00;102463.47;836568;23;1263;-53
2022/01/21 01:51:12;;;;;;;12.13;4.40;;;;;;;-0.73;100.00;102460.00;835258;23;853;-53
2022/01/21 01:51:33;;;;;;;12.30;4.38;;;;;;;-0.73;100.00;102460.88;833780;23;1312;-52
2022/01/21 01:51:55;;;;;;;10.77;4.30;;;;;;;-0.72;100.00;102469.47;831810;23;4540;-56
2022/01/21 01:52:17;;;;;;;11.23;4.32;;;;;;;-0.64;100.00;102457.19;836773;23;828;-53
2022/01/21 01:52:38;;;;;;;9.77;3.83;;;;;;;-0.62;100.00;102456.50;834272;23;1255;-55
2022/01/21 01:52:58;;;;;;;10.68;3.85;;;;;;;-0.63;100.00;102454.72;827483;23;904;-53
2022/01/21 01:53:22;;;;;;;11.53;4.10;;;;;;;-0.63;100.00;102454.72;831256;23;958;-56
2022/01/21 01:54:13;;;;;;;12.98;4.30;;;;;;;-0.56;100.00;102448.34;831747;23;852;-53
2022/01/21 01:54:37;;;;;;;11.07;4.35;;;;;;;-0.50;100.00;102458.13;833306;23;1327;-53
2022/01/21 01:54:57;;;;;;;11.38;4.45;;;;;;;-0.46;100.00;102449.88;838626;23;4455;-52
2022/01/21 01:55:18;;;;;;;11.35;4.15;;;;;;;-0.50;100.00;102456.44;837633;23;951;-52
2022/01/21 01:55:39;;;;;;;10.03;3.93;;;;;;;-0.52;100.00;102452.91;830245;23;1247;-54
2022/01/21 01:56:00;;;;;;;10.80;4.50;;;;;;;-0.55;100.00;102452.69;832162;23;927;-51
2022/01/21 01:56:27;;;;;;;10.95;4.15;;;;;;;-0.64;100.00;102455.50;826970;23;876;-55
2022/01/21 01:56:52;;;;;;;12.32;4.40;;;;;;;-0.66;100.00;102461.34;832021;23;1353;-53
2022/01/21 01:57:13;;;;;;;12.13;4.47;;;;;;;-0.71;100.00;102454.19;826077;23;1331;-51
2022/01/21 01:57:33;;;;;;;11.75;4.30;;;;;;;-0.72;100.00;102457.56;831569;23;865;-52
2022/01/21 01:57:54;;;;;;;10.40;4.30;;;;;;;-0.72;100.00;102459.19;830663;23;4233;-53
2022/01/21 01:58:14;;;;;;;11.63;4.57;;;;;;;-0.74;100.00;102461.66;830026;23;1266;-51
2022/01/21 01:58:37;;;;;;;11.50;4.38;;;;;;;-0.74;100.00;102463.34;830375;23;1224;-53
2022/01/21 01:58:57;;;;;;;14.07;4.70;;;;;;;-0.75;100.00;102456.44;829492;23;710;-52
2022/01/21 01:59:18;;;;;;;10.63;4.50;;;;;;;-0.75;100.00;102459.91;832271;23;908;-54
2022/01/21 01:59:39;;;;;;;10.85;4.05;;;;;;;-0.75;100.00;102461.56;826326;23;1428;-53
2022/01/21 01:59:59;;;;;;;13.60;4.33;;;;;;;-0.76;100.00;102458.13;823566;23;1909;-55
2022/01/21 02:00:20;;;;;;;14.30;5.07;;;;;;;-0.78;100.00;102461.34;828127;23;947;-52
2022/01/21 02:00:41;;;;;;;14.17;4.73;;;;;;;-0.80;100.00;102466.38;825150;23;872;-55
2022/01/21 02:01:03;;;;;;;11.85;4.50;;;;;;;-0.80;100.00;102461.25;822703;23;4304;-55
2022/01/21 02:01:24;;;;;;;11.55;4.78;;;;;;;-0.77;100.00;102465.72;830208;23;924;-53
2022/01/21 02:02:00;;;;;;;9.32;4.30;;;;;;;-0.73;100.00;102463.47;833745;23;805;-52
2022/01/21 02:02:20;;;;;;;11.73;4.43;;;;;;;-0.74;100.00;102456.53;832577;23;895;-55
2022/01/21 02:02:41;;;;;;;12.43;4.53;;;;;;;-0.75;100.00;102457.34;833384;23;884;-54
2022/01/21 02:03:06;;;;;;;12.40;4.65;;;;;;;-0.73;100.00;102462.59;834919;23;1381;-52
2022/01/21 02:03:27;;;;;;;11.18;4.47;;;;;;;-0.70;100.00;102455.97;834674;23;975;-52
2022/01/21 02:03:47;;;;;;;11.27;4.37;;;;;;;-0.69;100.00;102455.19;833600;23;4527;-51
2022/01/21 02:04:08;;;;;;;12.60;4.70;;;;;;;-0.67;100.00;102454.41;835791;23;1225;-52
2022/01/21 02:04:28;;;;;;;10.93;4.50;;;;;;;-0.63;100.00;102461.53;836710;23;895;-53
2022/01/21 02:04:49;;;;;;;9.85;4.10;;;;;;;-0.62;100.00;102460.75;835178;23;1279;-53
2022/01/21 02:05:10;;;;;;;10.93;4.15;;;;;;;-0.59;100.00;102461.84;838098;23;733;-56
2022/01/21 02:05:30;;;;;;;12.90;4.60;;;;;;;-0.58;100.00;102463.66;837181;23;938;-56
2022/01/21 02:05:50;;;;;;;12.27;4.50;;;;;;;-0.58;100.00;102462.72;834032;23;1327;-53
2022/01/21 02:06:11;;;;;;;16.07;4.83;;;;;;;-0.57;100.00;102464.53;831380;23;768;-52
2022/01/21 02:06:32;;;;;;;12.93;4.50;;;;;;;-0.56;100.00;102463.75;832895;23;836;-57
2022/01/21 02:06:54;;;;;;;11.73;4.30;;;;;;;-0.51;100.00;102457.25;834428;23;4192;-54
2022/01/21 02:07:15;;;;;;;11.82;4.40;;;;;;;-0.49;100.00;102455.69;836549;23;737;-52
2022/01/21 02:07:35;;;;;;;14.43;4.70;;;;;;;-0.48;100.00;102452.31;833772;23;801;-53
2022/01/21 02:07:55;;;;;;;12.68;4.78;;;;;;;-0.46;100.00;102449.88;831161;23;1205;-51
2022/01/21 02:08:16;;;;;;;12.23;4.87;;;;;;;-0.51;100.00;102449.56;828620;23;962;-52
2022/01/21 02:08:37;;;;;;;11.07;4.30;;;;;;;-0.51;100.00;102454.69;827203;23;1212;-52
2022/01/21 02:08:59;;;;;;;11.23;4.70;;;;;;;-0.51;100.00;102447.00;826331;23;915;-57
2022/01/21 02:09:20;;;;;;;10.98;4.40;;;;;;;-0.49;100.00;102447.97;825100;23;777;-52
2022/01/21 02:09:42;;;;;;;11.63;5.05;;;;;;;-0.45;100.00;102455.09;832598;23;1573;-53
2022/01/21 02:10:03;;;;;;;10.35;4.38;;;;;;;-0.45;100.00;102449.97;834504;23;4201;-53
2022/01/21 02:10:24;;;;;;;12.50;4.50;;;;;;;-0.43;100.00;102447.50;836601;23;1265;-51
2022/01/21 02:10:44;;;;;;;15.77;4.85;;;;;;;-0.45;100.00;102449.97;836380;23;1505;-52
2022/01/21 02:11:04;;;;;;;14.20;4.80;;;;;;;-0.47;100.00;102446.41;836181;23;924;-55
2022/01/21 02:11:25;;;;;;;11.23;4.72;;;;;;;-0.48;100.00;102438.59;834727;23;1262;-51
2022/01/21 02:11:46;;;;;;;12.27;4.72;;;;;;;-0.49;100.00;102441.94;836111;23;1481;-53
2022/01/21 02:12:08;;;;;;;11.65;4.80;;;;;;;-0.48;100.00;102439.47;831536;23;1329;-55
2022/01/21 02:12:28;;;;;;;10.27;4.40;;;;;;;-0.46;100.00;102443.03;834900;23;1133;-52
2022/01/21 02:12:49;;;;;;;12.83;4.23;;;;;;;-0.46;100.00;102442.16;839940;23;4339;-54
2022/01/21 02:13:45;;;;;;;13.90;4.45;;;;;;;-0.48;100.00;102443.75;828786;23;897;-54
2022/01/21 02:14:10;;;;;;;14.30;4.50;;;;;;;-0.48;100.00;102439.47;830651;23;920;-53
2022/01/21 02:14:34;;;;;;;11.38;4.35;;;;;;;-0.52;100.00;102440.06;831315;23;1217;-55
2022/01/21 02:14:55;;;;;;;13.27;4.75;;;;;;;-0.54;100.00;102436.47;828787;23;2048;-54
2022/01/21 02:15:16;;;;;;;11.03;4.80;;;;;;;-0.54;100.00;102444.19;832273;23;722;-51
2022/01/21 02:15:41;;;;;;;9.60;4.40;;;;;;;-0.57;100.00;102433.69;827523;23;1172;-52